• Join FlightAware (Why Join?)
  • Login
  • US Flag 
09:17AM EDT


 

Airport Tracker/Info


-or-


 

Live Flight TrackerFlight Track Log ✈ SWA293 ✈ 09-Jun-2013 ✈ KSEA - KMDW

Flight Track Log - Related Links

Times and Time Zones

All times are in EDT time to prevent confusion due to time zone crossing. See the SWA293 flight status page for this flight to view local times or setup timezone preferences in your user account.

Time Position Orientation Groundspeed Altitude Reporting Facility
EDT Latitude Longitude Course Direction KTS MPH feet Rate Location/Type
10:00AM 47.4636 -122.3078 359° North 164 189 1,200  Level Seattle Center
10:02AM 47.5261 -122.3094 359° North 203 234 3,500 2,160 Climbing Seattle Center
10:02AM 47.5697 -122.3094 360° North 223 257 5,300 2,700 Climbing Seattle Center
10:03AM 47.6106 -122.2383 50° Northeast 275 316 8,100 2,520 Climbing Seattle Center
10:04AM 47.6072 -122.1139 92° East 303 349 10,500 2,100 Climbing Seattle Center
10:05AM 47.5517 -121.9919 124° Southeast 360 414 12,400 1,980 Climbing Seattle Center
10:06AM 47.4922 -121.8583 123° Southeast 387 445 14,500 2,280 Climbing Seattle Center
10:07AM 47.4328 -121.7108 121° Southeast 420 483 17,000 2,160 Climbing Seattle Center
10:08AM 47.4208 -121.5303 96° East 445 512 18,900 1,920 Climbing Seattle Center
10:09AM 47.4053 -121.3464 97° East 457 526 20,900 1,860 Climbing Seattle Center
10:10AM 47.3906 -121.1553 96° East 473 544 22,800 1,800 Climbing Seattle Center
10:11AM 47.3747 -120.9622 97° East 481 554 24,600 1,620 Climbing Seattle Center
10:12AM 47.3597 -120.7786 97° East 490 564 26,100 1,380 Climbing Seattle Center
10:13AM 47.3436 -120.5753 97° East 500 575 27,500 1,380 Climbing Seattle Center
10:14AM 47.3244 -120.3244 96° East 512 589 29,000 1,260 Climbing Seattle Center
10:15AM 47.3033 -120.1108 98° East 525 604 30,100 1,140 Climbing Seattle Center
10:16AM 47.2814 -119.8936 98° East 535 616 31,400 1,260 Climbing Seattle Center
10:17AM 47.2628 -119.6789 97° East 533 613 32,700 1,140 Climbing Seattle Center
10:18AM 47.2417 -119.4619 98° East 537 618 33,700 1,080 Climbing Seattle Center
10:19AM 47.2194 -119.2453 99° East 538 619 34,900 600 Climbing Seattle Center
10:20AM 47.1989 -119.0350 98° East 528 608 35,000  Climbing Seattle Center
10:21AM 47.1761 -118.8231 99° East 526 605 35,000  Level Seattle Center
10:22AM 47.1544 -118.6108 98° East 527 606 35,000  Level Seattle Center
10:24AM 47.1331 -118.4006 98° East 525 604 35,000  Level Seattle Center
10:25AM 47.1094 -118.1883 99° East 528 608 35,000  Level Seattle Center
10:26AM 47.0872 -117.9761 99° East 529 609 35,000  Level Seattle Center
10:27AM 47.0639 -117.7658 99° East 528 608 35,000  Level Seattle Center
10:28AM 47.0411 -117.5525 99° East 534 615 35,000  Level Seattle Center
10:29AM 47.0167 -117.3372 99° East 540 621 35,000  Level Seattle Center
10:30AM 46.9864 -117.0792 100° East 542 624 35,000  Level Seattle Center
10:31AM 46.9606 -116.8628 100° East 546 628 35,000  Level Seattle Center
10:32AM 46.9350 -116.6458 100° East 545 627 35,000  Level Seattle Center
10:33AM 46.9078 -116.4311 100° East 542 624 35,000  Level Seattle Center
10:34AM 46.8817 -116.2153 100° East 542 624 35,000  Level Seattle Center
10:35AM 46.8539 -115.9992 101° East 544 626 35,000  Level Seattle Center
10:36AM 46.8261 -115.7833 101° East 545 627 35,000  Level Seattle Center
10:37AM 46.7978 -115.5686 101° East 542 624 35,000  Level Seattle Center
10:38AM 46.7675 -115.3383 101° East 542 624 35,000  Level Seattle Center
10:39AM 46.7381 -115.1239 101° East 543 625 35,000  Level Seattle Center
10:40AM 46.7086 -114.9094 101° East 543 625 35,000  Level Seattle Center
10:40AM 46.6917 -114.7825 101° East 538 619 35,000  Level Salt Lake Center
10:41AM 46.6614 -114.5694 102° East 541 623 35,000  Level Salt Lake Center
10:42AM 46.6311 -114.3575 102° East 539 620 35,000  Level Salt Lake Center
10:43AM 46.6003 -114.1461 102° East 538 619 35,000  Level Salt Lake Center
10:44AM 46.5694 -113.9339 102° East 539 620 35,000  Level Salt Lake Center
10:45AM 46.5392 -113.7228 102° East 537 618 35,000  Level Salt Lake Center
10:46AM 46.5003 -113.4697 102° East 539 620 35,000  Level Salt Lake Center
10:47AM 46.4711 -113.2767 102° East 538 619 35,000  Level Salt Lake Center
10:48AM 46.4392 -113.0656 102° East 541 623 35,000  Level Salt Lake Center
10:49AM 46.4022 -112.8414 103° East 536 617 35,000  Level Salt Lake Center
10:50AM 46.3672 -112.6322 104° East 535 616 35,000  Level Salt Lake Center
10:52AM 46.3339 -112.4203 103° East 538 619 35,000  Level Salt Lake Center
10:53AM 46.2997 -112.2083 103° East 541 623 35,000  Level Salt Lake Center
10:54AM 46.2594 -111.9531 103° East 542 624 35,000  Level Salt Lake Center
10:55AM 46.2231 -111.7425 104° East 539 620 35,000  Level Salt Lake Center
10:56AM 46.1878 -111.5311 103° East 539 620 35,000  Level Salt Lake Center
10:57AM 46.1514 -111.3203 104° East 538 619 35,000  Level Salt Lake Center
10:58AM 46.1161 -111.1086 103° East 537 618 35,000  Level Salt Lake Center
10:59AM 46.0792 -110.8986 104° East 535 616 35,000  Level Salt Lake Center
11:00AM 46.0414 -110.6892 104° East 535 616 35,000  Level Salt Lake Center
11:01AM 46.0022 -110.4775 105° East 531 611 35,000  Level Salt Lake Center
11:02AM 45.9600 -110.2461 105° East 534 615 35,000  Level Salt Lake Center
11:03AM 45.9239 -110.0469 105° East 536 617 35,000  Level Salt Lake Center
11:04AM 45.8811 -109.8156 105° East 538 619 35,000  Level Salt Lake Center
11:05AM 45.8458 -109.6156 104° East 538 619 35,000  Level Salt Lake Center
11:06AM 45.8006 -109.3853 106° East 538 619 35,000  Level Salt Lake Center
11:07AM 45.7614 -109.1878 106° East 538 619 35,000  Level Salt Lake Center
11:08AM 45.7228 -108.9911 106° East 536 617 35,000  Level Salt Lake Center
11:09AM 45.6764 -108.7614 106° East 539 620 35,000  Level Salt Lake Center
11:10AM 45.6381 -108.5656 106° East 535 616 35,000  Level Salt Lake Center
11:11AM 45.5939 -108.3364 105° East 535 616 35,000  Level Salt Lake Center
11:12AM 45.5533 -108.1419 107° East 533 613 35,000  Level Salt Lake Center
11:13AM 45.5072 -107.9164 106° East 531 611 35,000  Level Salt Lake Center
11:14AM 45.4678 -107.7219 106° East 531 611 35,000  Level Salt Lake Center
11:15AM 45.4269 -107.5292 107° East 528 608 35,000  Level Salt Lake Center
11:16AM 45.3783 -107.3025 107° East 534 615 35,000  Level Salt Lake Center
11:17AM 45.3381 -107.1089 106° East 532 612 35,000  Level Salt Lake Center
11:18AM 45.2889 -106.8847 107° East 533 613 35,000  Level Salt Lake Center
11:19AM 45.2475 -106.6903 107° East 536 617 35,000  Level Salt Lake Center
11:20AM 45.1978 -106.4686 108° East 530 610 35,000  Level Salt Lake Center
11:21AM 45.1553 -106.2781 107° East 531 611 35,000  Level Salt Lake Center
11:22AM 45.1197 -106.1217 108° East 526 605 35,000  Level Denver Center
11:23AM 45.0694 -105.9008 108° East 526 605 35,000  Level Denver Center
11:24AM 45.0269 -105.7122 108° East 525 604 35,000  Level Denver Center
11:25AM 44.9764 -105.4942 108° East 524 603 35,000  Level Denver Center
11:26AM 44.9328 -105.3083 108° East 522 601 35,000  Level Denver Center
11:27AM 44.8817 -105.0919 108° East 521 600 35,000  Level Denver Center
11:28AM 44.8381 -104.9050 108° East 522 601 35,000  Level Denver Center
11:30AM 44.7869 -104.6906 108° East 519 597 35,000  Level Denver Center
11:31AM 44.7422 -104.5036 109° East 517 595 35,000  Level Denver Center
11:32AM 44.6972 -104.3206 109° East 517 595 35,000  Level Denver Center
11:33AM 44.6442 -104.1061 109° East 521 600 35,000  Level Denver Center
11:34AM 44.5983 -103.9242 109° East 518 596 35,000  Level Denver Center
11:35AM 44.5458 -103.7103 109° East 519 597 35,000  Level Denver Center
11:36AM 44.4967 -103.5164 110° East 516 594 35,000  Level Denver Center
11:37AM 44.4486 -103.3278 110° East 516 594 35,000  Level Denver Center
11:38AM 44.4019 -103.1400 109° East 513 590 35,000  Level Denver Center
11:39AM 44.3522 -102.9525 110° East 514 592 35,000  Level Denver Center
11:40AM 44.3044 -102.7667 110° East 512 589 35,000  Level Denver Center
11:41AM 44.2450 -102.5414 110° East 516 594 35,000  Level Denver Center
11:42AM 44.1950 -102.3542 110° East 516 594 35,000  Level Denver Center
11:43AM 44.1447 -102.1689 111° Southeast 515 593 35,000  Level Denver Center
11:44AM 44.1033 -102.0197 111° Southeast 515 593 35,000  Level Denver Center
11:45AM 44.0428 -101.7972 111° Southeast 515 593 35,000  Level Denver Center
11:46AM 43.9942 -101.6167 110° East 511 588 35,000  Level Minneapolis Center
11:47AM 43.9447 -101.4333 110° East 511 588 35,000  Level Minneapolis Center
11:48AM 43.8833 -101.2144 111° Southeast 511 588 35,000  Level Denver Center
11:49AM 43.8328 -101.0314 111° Southeast 512 589 35,000  Level Denver Center
11:50AM 43.7817 -100.8492 111° Southeast 510 587 35,000  Level Denver Center
11:51AM 43.7289 -100.6664 112° Southeast 512 589 35,000  Level Denver Center
11:52AM 43.6797 -100.4875 111° Southeast 509 586 35,000  Level Minneapolis Center
11:53AM 43.6167 -100.2706 112° Southeast 508 585 35,000  Level Denver Center
11:54AM 43.5639 -100.0878 112° Southeast 512 589 35,000  Level Minneapolis Center
11:55AM 43.5100 -99.9069 112° Southeast 513 590 35,000  Level Minneapolis Center
11:56AM 43.4572 -99.7236 112° Southeast 515 593 35,000  Level Minneapolis Center
11:57AM 43.4028 -99.5422 112° Southeast 516 594 35,000  Level Minneapolis Center
11:58AM 43.3478 -99.3586 112° Southeast 519 597 35,000  Level Minneapolis Center
11:59AM 43.2936 -99.1775 112° Southeast 515 593 35,000  Level Minneapolis Center
12:00PM 43.2311 -98.9717 113° Southeast 517 595 35,000  Level Minneapolis Center
12:01PM 43.1761 -98.7925 113° Southeast 515 593 35,000  Level Minneapolis Center
12:03PM 43.1206 -98.6117 113° Southeast 517 595 35,000  Level Minneapolis Center
12:04PM 43.0650 -98.4328 113° Southeast 515 593 35,000  Level Minneapolis Center
12:05PM 42.9975 -98.2189 113° Southeast 514 592 35,000  Level Minneapolis Center
12:06PM 42.9433 -98.0439 113° Southeast 506 582 35,000  Level Minneapolis Center
12:07PM 42.8872 -97.8703 114° Southeast 504 580 35,000  Level Minneapolis Center
12:08PM 42.8342 -97.6989 113° Southeast 498 573 35,000  Level Minneapolis Center
12:09PM 42.7794 -97.5286 114° Southeast 494 568 35,000  Level Minneapolis Center
12:10PM 42.7244 -97.3597 114° Southeast 492 566 35,000  Level Minneapolis Center
12:11PM 42.6606 -97.1625 114° Southeast 491 565 35,000  Level Minneapolis Center
12:12PM 42.6053 -96.9942 114° Southeast 489 563 35,000  Level Minneapolis Center
12:13PM 42.5489 -96.8219 114° Southeast 494 568 35,000  Level Minneapolis Center
12:14PM 42.4919 -96.6517 114° Southeast 495 570 35,000  Level Minneapolis Center
12:15PM 42.4361 -96.4817 114° Southeast 493 567 35,000  Level Minneapolis Center
12:16PM 42.3789 -96.3133 115° Southeast 492 566 35,000 240 Level Minneapolis Center
12:17PM 42.3225 -96.1461 114° Southeast 490 564 35,500 660 Climbing Minneapolis Center
12:18PM 42.2544 -95.9444 114° Southeast 490 564 36,400 660 Climbing Minneapolis Center
12:19PM 42.1958 -95.7728 115° Southeast 500 575 36,900 240 Climbing Minneapolis Center
12:20PM 42.1367 -95.6006 115° Southeast 503 579 37,000  Climbing Minneapolis Center
12:21PM 42.0783 -95.4344 115° Southeast 495 570 37,000  Level Minneapolis Center
12:22PM 42.0203 -95.2664 115° Southeast 495 570 37,000  Level Minneapolis Center
12:23PM 41.9278 -95.1325 133° Southeast 501 577 37,000  Level Minneapolis Center
12:24PM 41.7997 -95.0594 157° South 498 573 37,000  Level Minneapolis Center
12:25PM 41.6714 -94.9908 158° South 494 568 37,000  Level Minneapolis Center
12:26PM 41.5186 -94.9078 158° South 492 566 37,000  Level Minneapolis Center
12:27PM 41.4664 -94.7506 114° Southeast 477 549 37,000  Level Minneapolis Center
12:28PM 41.4622 -94.5761 92° East 469 540 37,000  Level Minneapolis Center
12:29PM 41.4539 -94.4003 94° East 472 543 37,000  Level Minneapolis Center
12:30PM 41.4450 -94.2228 94° East 470 541 37,000  Level Minneapolis Center
12:31PM 41.4372 -94.0514 93° East 467 537 37,000  Level Minneapolis Center
12:32PM 41.4300 -93.8794 93° East 468 539 37,000  Level Minneapolis Center
12:33PM 41.4222 -93.7081 93° East 467 537 37,000  Level Minneapolis Center
12:35PM 41.4131 -93.5008 93° East 469 540 37,000  Level Minneapolis Center
12:36PM 41.4050 -93.3300 94° East 467 537 37,000 -120 Level Minneapolis Center
12:37PM 41.3969 -93.1606 94° East 464 534 36,800 -540 Descending Minneapolis Center
12:38PM 41.3875 -92.9897 94° East 464 534 35,900 -960 Descending Minneapolis Center
12:39PM 41.3789 -92.8175 94° East 466 536 34,900 -1,080 Descending Minneapolis Center
12:40PM 41.3694 -92.6519 94° East 452 520 33,900 -1,020 Descending Chicago Center
12:41PM 41.3606 -92.4900 94° East 444 511 33,000 -1,020 Descending Chicago Center
12:42PM 41.3503 -92.3056 94° East 443 510 31,900 -1,020 Descending Chicago Center
12:43PM 41.3403 -92.1378 94° East 454 522 31,000 -480 Descending Chicago Center
12:44PM 41.3306 -91.9747 94° East 450 518 31,000  Level Chicago Center
12:45PM 41.3206 -91.8147 95° East 444 511 31,000  Level Chicago Center
12:46PM 41.3108 -91.6547 95° East 439 505 31,000  Level Chicago Center
12:47PM 41.2983 -91.4628 95° East 440 506 31,000 -60 Level Chicago Center
12:48PM 41.2872 -91.3028 95° East 440 506 30,900 -780 Descending Chicago Center
12:49PM 41.2761 -91.1358 95° East 426 490 29,400 -1,620 Descending Chicago Center
12:50PM 41.2664 -90.9864 95° East 410 472 27,600 -1,800 Descending Chicago Center
12:51PM 41.2556 -90.8436 96° East 394 453 25,800 -1,620 Descending Chicago Center
12:52PM 41.2475 -90.7056 94° East 381 438 24,400 -1,200 Descending Chicago Center
12:53PM 41.2369 -90.5711 96° East 371 427 23,400 -1,020 Descending Chicago Center
12:54PM 41.2264 -90.4397 96° East 361 415 22,400 -1,020 Descending Chicago Center
12:55PM 41.1836 -90.3325 118° Southeast 350 403 21,400 -1,080 Descending Chicago Center
12:56PM 41.0950 -90.2489 145° Southeast 328 377 20,200 -1,080 Descending Chicago Center
12:57PM 41.0225 -90.1797 144° Southeast 322 371 19,200 -960 Descending Chicago Center
12:58PM 40.9697 -90.1008 132° Southeast 332 382 18,300 -960 Descending Chicago Center
12:59PM 40.9942 -89.9428 78° East 375 432 17,300 -900 Descending Chicago Center
01:00PM 41.0144 -89.8181 78° East 380 437 16,400 -900 Descending Chicago Center
01:01PM 41.0378 -89.6814 77° East 378 435 15,400 -1,200 Descending Chicago Center
01:02PM 41.0636 -89.5206 78° East 370 426 14,000 -1,380 Descending Chicago Center
01:03PM 41.0867 -89.3881 77° East 369 425 12,600 -1,200 Descending Chicago Center
01:04PM 41.1072 -89.2617 78° East 355 409 11,600 -1,020 Descending Chicago Center
01:05PM 41.1289 -89.1375 77° East 342 394 10,600 -840 Descending Chicago Center
01:06PM 41.1481 -89.0197 78° East 335 386 9,900 -360 Descending Chicago Center
01:07PM 41.1819 -88.9100 68° East 327 376 9,900 -60 Level Chicago Center
01:08PM 41.2383 -88.8150 52° Northeast 326 375 9,800 -600 Descending Chicago Center
01:10PM 41.3042 -88.7097 50° Northeast 318 366 8,700 -1,020 Descending Chicago Center
01:11PM 41.3575 -88.6236 50° Northeast 309 356 7,700 -1,020 Descending Chicago Center
01:12PM 41.4100 -88.5397 50° Northeast 302 348 6,700 -840 Descending Chicago Center
01:13PM 41.4600 -88.4575 51° Northeast 295 339 6,000 -840 Descending Chicago Center
01:14PM 41.4839 -88.3603 72° East 290 334 5,000 -540 Descending Chicago Center
01:15PM 41.5017 -88.2611 77° East 282 325 5,000  Level Chicago Center
01:16PM 41.5231 -88.1414 77° East 277 319 5,000  Level Chicago Center
01:17PM 41.5403 -88.0414 77° East 274 315 5,000  Level Chicago Center
01:18PM 41.5589 -87.9419 76° East 273 314 5,000 -540 Level Chicago Center
01:19PM 41.5789 -87.8442 75° East 274 315 4,000 -1,020 Descending Chicago Center
01:20PM 41.6336 -87.7742 44° Northeast 273 314 3,000 -720 Descending Chicago Center
01:21PM 41.6831 -87.7114 43° Northeast 260 299 2,600 -300 Descending Chicago Center
01:22PM 41.7319 -87.6778 27° Northeast 231 266 2,400 -420 Descending Chicago Center
01:23PM 41.7931 -87.6833 356° North 198 228 1,800 -660 Descending Chicago Center
01:24PM 41.8086 -87.7236 297° West 175 201 1,100 -720 Descending Chicago Center